sensor_id;sensor_type;location;lat;lon;timestamp;temperature;humidity
63771;DHT22;60282;43.862;18.430;2022-07-06T00:40:25;18.60;99.90
63771;DHT22;60282;43.862;18.430;2022-07-06T00:45:51;18.60;99.90
63771;DHT22;60282;43.862;18.430;2022-07-06T00:56:34;18.70;99.90
63771;DHT22;60282;43.862;18.430;2022-07-06T00:59:02;18.70;99.90
63771;DHT22;60282;43.862;18.430;2022-07-06T01:01:28;18.70;99.90
63771;DHT22;60282;43.862;18.430;2022-07-06T01:09:26;18.50;99.90
63771;DHT22;60282;43.862;18.430;2022-07-06T01:11:55;18.50;99.90
63771;DHT22;60282;43.862;18.430;2022-07-06T01:14:21;18.60;99.90
63771;DHT22;60282;43.862;18.430;2022-07-06T01:16:48;18.60;99.90
63771;DHT22;60282;43.862;18.430;2022-07-06T01:59:11;18.40;99.90
63771;DHT22;60282;43.862;18.430;2022-07-06T04:30:14;17.80;99.90
63771;DHT22;60282;43.862;18.430;2022-07-06T04:36:19;18.30;99.90
63771;DHT22;60282;43.862;18.430;2022-07-06T04:45:56;17.90;99.90
63771;DHT22;60282;43.862;18.430;2022-07-06T04:56:01;17.90;99.90
63771;DHT22;60282;43.862;18.430;2022-07-06T04:58:42;18.20;99.90
63771;DHT22;60282;43.862;18.430;2022-07-06T05:04:01;17.80;99.90
63771;DHT22;60282;43.862;18.430;2022-07-06T05:06:46;17.90;99.90
63771;DHT22;60282;43.862;18.430;2022-07-06T05:11:55;17.90;99.90
63771;DHT22;60282;43.862;18.430;2022-07-06T05:35:15;17.90;99.90
63771;DHT22;60282;43.862;18.430;2022-07-06T06:09:22;18.40;99.90
63771;DHT22;60282;43.862;18.430;2022-07-06T06:24:18;18.90;99.90
63771;DHT22;60282;43.862;18.430;2022-07-06T06:27:24;18.40;99.90
63771;DHT22;60282;43.862;18.430;2022-07-06T06:45:58;19.10;99.90
63771;DHT22;60282;43.862;18.430;2022-07-06T06:48:24;20.00;99.90
63771;DHT22;60282;43.862;18.430;2022-07-06T06:51:05;20.00;99.90
63771;DHT22;60282;43.862;18.430;2022-07-06T06:54:04;20.10;99.90
63771;DHT22;60282;43.862;18.430;2022-07-06T06:56:46;20.30;99.90
63771;DHT22;60282;43.862;18.430;2022-07-06T06:59:49;20.60;99.90
63771;DHT22;60282;43.862;18.430;2022-07-06T07:02:15;21.50;99.90
63771;DHT22;60282;43.862;18.430;2022-07-06T07:07:44;21.40;99.90
63771;DHT22;60282;43.862;18.430;2022-07-06T07:10:20;20.40;99.90
63771;DHT22;60282;43.862;18.430;2022-07-06T07:13:20;20.50;99.90
63771;DHT22;60282;43.862;18.430;2022-07-06T07:15:51;20.10;99.90
63771;DHT22;60282;43.862;18.430;2022-07-06T07:18:51;20.80;99.90
63771;DHT22;60282;43.862;18.430;2022-07-06T07:39:30;20.80;99.90
63771;DHT22;60282;43.862;18.430;2022-07-06T07:42:00;20.60;99.90
63771;DHT22;60282;43.862;18.430;2022-07-06T08:09:01;21.60;99.70
63771;DHT22;60282;43.862;18.430;2022-07-06T08:29:49;22.00;98.00
63771;DHT22;60282;43.862;18.430;2022-07-06T08:43:04;23.50;95.90
63771;DHT22;60282;43.862;18.430;2022-07-06T08:52:59;25.00;95.60
63771;DHT22;60282;43.862;18.430;2022-07-06T08:55:40;24.00;93.40
63771;DHT22;60282;43.862;18.430;2022-07-06T09:01:49;25.50;94.10
63771;DHT22;60282;43.862;18.430;2022-07-06T09:19:50;25.30;94.10
63771;DHT22;60282;43.862;18.430;2022-07-06T09:22:49;24.30;93.80
63771;DHT22;60282;43.862;18.430;2022-07-06T09:25:38;23.60;92.80
63771;DHT22;60282;43.862;18.430;2022-07-06T10:03:12;26.70;89.50
63771;DHT22;60282;43.862;18.430;2022-07-06T10:05:40;25.50;87.40
63771;DHT22;60282;43.862;18.430;2022-07-06T10:11:13;25.90;87.10
63771;DHT22;60282;43.862;18.430;2022-07-06T10:34:19;26.30;82.40
63771;DHT22;60282;43.862;18.430;2022-07-06T12:00:20;34.50;54.00
63771;DHT22;60282;43.862;18.430;2022-07-06T12:05:46;33.40;50.60
63771;DHT22;60282;43.862;18.430;2022-07-06T12:12:11;34.90;50.00
63771;DHT22;60282;43.862;18.430;2022-07-06T12:26:16;34.50;42.40
63771;DHT22;60282;43.862;18.430;2022-07-06T12:59:23;36.90;38.80
63771;DHT22;60282;43.862;18.430;2022-07-06T13:05:49;35.50;38.40
63771;DHT22;60282;43.862;18.430;2022-07-06T13:08:37;35.70;39.80
63771;DHT22;60282;43.862;18.430;2022-07-06T13:34:02;36.20;37.70
63771;DHT22;60282;43.862;18.430;2022-07-06T14:40:38;36.80;39.90
63771;DHT22;60282;43.862;18.430;2022-07-06T14:43:32;37.70;39.90
63771;DHT22;60282;43.862;18.430;2022-07-06T14:52:16;35.20;39.00
63771;DHT22;60282;43.862;18.430;2022-07-06T14:57:32;35.60;38.10
63771;DHT22;60282;43.862;18.430;2022-07-06T15:00:17;35.00;38.00
63771;DHT22;60282;43.862;18.430;2022-07-06T15:02:54;35.60;41.40
63771;DHT22;60282;43.862;18.430;2022-07-06T15:35:05;37.30;37.80
63771;DHT22;60282;43.862;18.430;2022-07-06T15:46:27;36.90;36.30
63771;DHT22;60282;43.862;18.430;2022-07-06T15:49:10;37.30;40.00
63771;DHT22;60282;43.862;18.430;2022-07-06T15:54:46;38.60;37.70
63771;DHT22;60282;43.862;18.430;2022-07-06T15:57:12;38.70;37.90
63771;DHT22;60282;43.862;18.430;2022-07-06T15:59:56;38.30;36.60
63771;DHT22;60282;43.862;18.430;2022-07-06T16:02:25;38.40;36.80
63771;DHT22;60282;43.862;18.430;2022-07-06T16:08:14;39.50;36.10
63771;DHT22;60282;43.862;18.430;2022-07-06T16:14:01;37.80;36.10
63771;DHT22;60282;43.862;18.430;2022-07-06T16:16:27;37.20;36.50
63771;DHT22;60282;43.862;18.430;2022-07-06T16:26:18;37.80;39.20
63771;DHT22;60282;43.862;18.430;2022-07-06T16:29:06;36.50;39.10
63771;DHT22;60282;43.862;18.430;2022-07-06T16:34:13;35.00;38.70
63771;DHT22;60282;43.862;18.430;2022-07-06T16:43:40;34.60;39.20
63771;DHT22;60282;43.862;18.430;2022-07-06T16:51:43;33.90;41.80
63771;DHT22;60282;43.862;18.430;2022-07-06T16:54:15;33.90;44.10
63771;DHT22;60282;43.862;18.430;2022-07-06T16:59:23;34.00;41.00
63771;DHT22;60282;43.862;18.430;2022-07-06T17:01:52;34.00;42.90
63771;DHT22;60282;43.862;18.430;2022-07-06T17:04:30;33.60;42.80
63771;DHT22;60282;43.862;18.430;2022-07-06T17:06:55;33.00;42.30
63771;DHT22;60282;43.862;18.430;2022-07-06T17:09:21;32.90;40.70
63771;DHT22;60282;43.862;18.430;2022-07-06T17:11:47;32.60;41.10
63771;DHT22;60282;43.862;18.430;2022-07-06T17:14:27;32.10;41.90
63771;DHT22;60282;43.862;18.430;2022-07-06T17:23:19;31.00;42.40
63771;DHT22;60282;43.862;18.430;2022-07-06T17:26:16;30.90;44.30
63771;DHT22;60282;43.862;18.430;2022-07-06T17:28:44;30.90;43.90
63771;DHT22;60282;43.862;18.430;2022-07-06T17:31:13;29.80;45.20
63771;DHT22;60282;43.862;18.430;2022-07-06T17:33:38;29.20;44.80
63771;DHT22;60282;43.862;18.430;2022-07-06T17:36:04;29.00;44.70
63771;DHT22;60282;43.862;18.430;2022-07-06T17:38:33;28.60;45.70
63771;DHT22;60282;43.862;18.430;2022-07-06T17:40:59;28.30;46.00
63771;DHT22;60282;43.862;18.430;2022-07-06T17:43:58;28.10;46.70
63771;DHT22;60282;43.862;18.430;2022-07-06T17:52:30;27.40;46.50
63771;DHT22;60282;43.862;18.430;2022-07-06T18:03:18;26.60;48.70
63771;DHT22;60282;43.862;18.430;2022-07-06T18:05:53;26.50;49.80
63771;DHT22;60282;43.862;18.430;2022-07-06T18:08:28;26.10;49.40
63771;DHT22;60282;43.862;18.430;2022-07-06T18:11:02;26.00;49.50
63771;DHT22;60282;43.862;18.430;2022-07-06T18:17:04;24.40;49.30
63771;DHT22;60282;43.862;18.430;2022-07-06T18:29:12;25.00;52.90
63771;DHT22;60282;43.862;18.430;2022-07-06T18:31:46;26.20;54.50
63771;DHT22;60282;43.862;18.430;2022-07-06T18:37:25;24.30;52.90
63771;DHT22;60282;43.862;18.430;2022-07-06T18:39:50;24.60;54.30
63771;DHT22;60282;43.862;18.430;2022-07-06T18:42:16;24.30;54.90
63771;DHT22;60282;43.862;18.430;2022-07-06T18:47:42;23.60;55.70
63771;DHT22;60282;43.862;18.430;2022-07-06T18:50:24;24.00;56.20
63771;DHT22;60282;43.862;18.430;2022-07-06T18:59:15;24.40;57.30
63771;DHT22;60282;43.862;18.430;2022-07-06T19:05:08;22.80;59.60
63771;DHT22;60282;43.862;18.430;2022-07-06T19:07:42;22.70;59.60
63771;DHT22;60282;43.862;18.430;2022-07-06T19:23:07;22.00;61.60
63771;DHT22;60282;43.862;18.430;2022-07-06T19:34:31;21.80;63.30
63771;DHT22;60282;43.862;18.430;2022-07-06T19:37:02;21.80;63.40
63771;DHT22;60282;43.862;18.430;2022-07-06T19:39:28;21.60;64.70
63771;DHT22;60282;43.862;18.430;2022-07-06T19:47:08;21.30;64.60
63771;DHT22;60282;43.862;18.430;2022-07-06T19:49:55;21.20;66.50
63771;DHT22;60282;43.862;18.430;2022-07-06T20:00:30;20.70;67.90
63771;DHT22;60282;43.862;18.430;2022-07-06T20:03:10;20.60;68.80
63771;DHT22;60282;43.862;18.430;2022-07-06T20:05:36;20.40;69.10
63771;DHT22;60282;43.862;18.430;2022-07-06T20:08:03;20.40;70.40
63771;DHT22;60282;43.862;18.430;2022-07-06T20:10:49;20.30;71.20
63771;DHT22;60282;43.862;18.430;2022-07-06T20:13:15;20.20;71.40
63771;DHT22;60282;43.862;18.430;2022-07-06T20:15:41;20.00;72.20
63771;DHT22;60282;43.862;18.430;2022-07-06T20:18:07;19.90;74.20
63771;DHT22;60282;43.862;18.430;2022-07-06T20:20:33;19.80;74.10
63771;DHT22;60282;43.862;18.430;2022-07-06T20:23:02;19.80;73.60
63771;DHT22;60282;43.862;18.430;2022-07-06T20:25:28;19.70;73.90
63771;DHT22;60282;43.862;18.430;2022-07-06T20:27:54;19.80;74.60
63771;DHT22;60282;43.862;18.430;2022-07-06T20:30:19;19.70;75.30
63771;DHT22;60282;43.862;18.430;2022-07-06T20:32:45;19.60;75.60
63771;DHT22;60282;43.862;18.430;2022-07-06T20:35:11;19.60;76.40
63771;DHT22;60282;43.862;18.430;2022-07-06T20:37:37;19.50;77.90
63771;DHT22;60282;43.862;18.430;2022-07-06T20:40:03;19.40;79.80
63771;DHT22;60282;43.862;18.430;2022-07-06T20:42:30;19.20;81.40
63771;DHT22;60282;43.862;18.430;2022-07-06T20:44:56;19.20;82.50
63771;DHT22;60282;43.862;18.430;2022-07-06T20:47:24;19.20;83.30
63771;DHT22;60282;43.862;18.430;2022-07-06T20:49:50;19.10;83.80
63771;DHT22;60282;43.862;18.430;2022-07-06T20:52:16;19.00;84.70
63771;DHT22;60282;43.862;18.430;2022-07-06T20:54:41;18.80;87.70
63771;DHT22;60282;43.862;18.430;2022-07-06T20:57:07;18.80;89.00
63771;DHT22;60282;43.862;18.430;2022-07-06T20:59:34;18.70;88.90
63771;DHT22;60282;43.862;18.430;2022-07-06T21:02:04;18.70;90.60
63771;DHT22;60282;43.862;18.430;2022-07-06T21:04:30;18.70;90.30
63771;DHT22;60282;43.862;18.430;2022-07-06T21:06:56;18.70;90.80
63771;DHT22;60282;43.862;18.430;2022-07-06T21:09:22;18.70;91.30
63771;DHT22;60282;43.862;18.430;2022-07-06T21:12:00;18.60;91.70
63771;DHT22;60282;43.862;18.430;2022-07-06T21:17:02;18.40;91.80
63771;DHT22;60282;43.862;18.430;2022-07-06T21:19:28;18.50;92.10
63771;DHT22;60282;43.862;18.430;2022-07-06T21:21:54;18.30;93.10
63771;DHT22;60282;43.862;18.430;2022-07-06T21:24:20;18.20;92.80
63771;DHT22;60282;43.862;18.430;2022-07-06T21:26:48;18.20;93.40
63771;DHT22;60282;43.862;18.430;2022-07-06T21:29:16;18.10;93.80
63771;DHT22;60282;43.862;18.430;2022-07-06T21:31:42;18.00;94.00
63771;DHT22;60282;43.862;18.430;2022-07-06T21:34:27;17.80;94.30
63771;DHT22;60282;43.862;18.430;2022-07-06T21:37:13;17.70;94.40
63771;DHT22;60282;43.862;18.430;2022-07-06T21:39:39;17.20;95.80
63771;DHT22;60282;43.862;18.430;2022-07-06T21:42:11;17.60;95.20
63771;DHT22;60282;43.862;18.430;2022-07-06T21:47:08;17.60;94.80
63771;DHT22;60282;43.862;18.430;2022-07-06T21:49:33;14.90;94.30
63771;DHT22;60282;43.862;18.430;2022-07-06T21:52:08;17.60;95.00
63771;DHT22;60282;43.862;18.430;2022-07-06T21:54:46;17.50;95.20
63771;DHT22;60282;43.862;18.430;2022-07-06T21:59:51;17.40;95.40
63771;DHT22;60282;43.862;18.430;2022-07-06T22:02:20;17.80;95.70
63771;DHT22;60282;43.862;18.430;2022-07-06T22:04:46;17.40;95.70
63771;DHT22;60282;43.862;18.430;2022-07-06T22:07:11;17.40;96.00
63771;DHT22;60282;43.862;18.430;2022-07-06T22:09:37;17.30;96.20
63771;DHT22;60282;43.862;18.430;2022-07-06T22:12:18;17.20;96.30
63771;DHT22;60282;43.862;18.430;2022-07-06T22:14:44;17.20;96.70
63771;DHT22;60282;43.862;18.430;2022-07-06T22:17:09;17.20;97.00
63771;DHT22;60282;43.862;18.430;2022-07-06T22:19:35;17.20;96.60
63771;DHT22;60282;43.862;18.430;2022-07-06T22:22:01;17.20;96.70
63771;DHT22;60282;43.862;18.430;2022-07-06T22:24:27;17.20;97.00
63771;DHT22;60282;43.862;18.430;2022-07-06T22:27:02;17.20;97.00
63771;DHT22;60282;43.862;18.430;2022-07-06T22:29:28;17.20;96.90
63771;DHT22;60282;43.862;18.430;2022-07-06T22:31:54;17.20;96.80
63771;DHT22;60282;43.862;18.430;2022-07-06T22:34:19;17.10;96.50
63771;DHT22;60282;43.862;18.430;2022-07-06T22:39:11;17.10;96.40
63771;DHT22;60282;43.862;18.430;2022-07-06T22:41:46;17.20;96.60
63771;DHT22;60282;43.862;18.430;2022-07-06T22:44:21;17.30;97.00
63771;DHT22;60282;43.862;18.430;2022-07-06T22:46:59;17.10;96.60
63771;DHT22;60282;43.862;18.430;2022-07-06T22:49:48;17.10;97.10
63771;DHT22;60282;43.862;18.430;2022-07-06T22:52:17;18.40;97.80
63771;DHT22;60282;43.862;18.430;2022-07-06T22:54:43;17.00;97.40
63771;DHT22;60282;43.862;18.430;2022-07-06T22:57:18;17.00;97.30
63771;DHT22;60282;43.862;18.430;2022-07-06T22:59:43;17.00;97.40
63771;DHT22;60282;43.862;18.430;2022-07-06T23:02:09;17.00;97.10
63771;DHT22;60282;43.862;18.430;2022-07-06T23:07:04;17.00;96.80
63771;DHT22;60282;43.862;18.430;2022-07-06T23:09:30;16.90;97.00
63771;DHT22;60282;43.862;18.430;2022-07-06T23:11:55;16.90;97.30
63771;DHT22;60282;43.862;18.430;2022-07-06T23:14:21;17.00;97.40
63771;DHT22;60282;43.862;18.430;2022-07-06T23:16:47;17.00;97.90
63771;DHT22;60282;43.862;18.430;2022-07-06T23:19:13;16.90;97.40
63771;DHT22;60282;43.862;18.430;2022-07-06T23:21:38;16.80;97.50
63771;DHT22;60282;43.862;18.430;2022-07-06T23:24:04;16.80;97.70
63771;DHT22;60282;43.862;18.430;2022-07-06T23:26:30;16.80;97.70
63771;DHT22;60282;43.862;18.430;2022-07-06T23:28:56;16.70;98.00
63771;DHT22;60282;43.862;18.430;2022-07-06T23:31:21;16.70;98.00
63771;DHT22;60282;43.862;18.430;2022-07-06T23:33:47;16.70;97.80
63771;DHT22;60282;43.862;18.430;2022-07-06T23:36:13;16.70;97.70
63771;DHT22;60282;43.862;18.430;2022-07-06T23:38:42;16.60;98.00
63771;DHT22;60282;43.862;18.430;2022-07-06T23:41:08;17.00;98.00
63771;DHT22;60282;43.862;18.430;2022-07-06T23:43:33;16.60;98.20
63771;DHT22;60282;43.862;18.430;2022-07-06T23:45:59;16.70;98.10
63771;DHT22;60282;43.862;18.430;2022-07-06T23:48:25;16.70;98.10
63771;DHT22;60282;43.862;18.430;2022-07-06T23:50:51;16.60;97.90
63771;DHT22;60282;43.862;18.430;2022-07-06T23:53:17;16.60;97.90
63771;DHT22;60282;43.862;18.430;2022-07-06T23:55:42;16.50;98.40
63771;DHT22;60282;43.862;18.430;2022-07-06T23:58:08;16.50;98.30
